Wetterdaten: Woche 11.10.10 - 17.10.10 (KW41)
Datum Zeit Temp. A. Feuchte A. Luftdruck Regen Wind Richtung Taupunkt Windchill Windben
11.10.2010 00:00 5,1 C 84 % 1015,5 hPa 0,0 l/m 0,0 km/h N 2,6 C 5,1 C 0,0 km/h
11.10.2010 01:00 4,9 C 85 % 1015,5 hPa 0,0 l/m 0,0 km/h N 2,6 C 4,9 C 0,4 km/h
11.10.2010 02:00 4,3 C 85 % 1015,4 hPa 0,0 l/m 0,0 km/h N 2,0 C 4,3 C 0,0 km/h
11.10.2010 03:00 3,5 C 85 % 1015,2 hPa 0,0 l/m 0,0 km/h N 1,2 C 3,5 C 0,0 km/h
11.10.2010 04:00 2,9 C 85 % 1015,3 hPa 0,0 l/m 0,0 km/h N 0,6 C 2,9 C 0,0 km/h
11.10.2010 05:00 2,5 C 85 % 1015,4 hPa 0,0 l/m 0,0 km/h N 0,3 C 2,5 C 0,4 km/h
11.10.2010 06:00 2,5 C 85 % 1015,4 hPa 0,0 l/m 0,0 km/h N 0,2 C 2,5 C 0,8 km/h
11.10.2010 07:00 2,7 C 85 % 1015,7 hPa 0,0 l/m 0,0 km/h N 0,4 C 2,7 C 2,0 km/h
11.10.2010 08:00 3,0 C 85 % 1016,4 hPa 0,0 l/m 0,0 km/h N 0,7 C 3,0 C 0,4 km/h
11.10.2010 09:00 4,6 C 85 % 1016,8 hPa 0,0 l/m 0,0 km/h N 2,3 C 4,6 C 0,4 km/h
11.10.2010 10:00 6,7 C 85 % 1016,5 hPa 0,0 l/m 0,2 km/h N 4,4 C 6,7 C 2,0 km/h
11.10.2010 11:00 8,6 C 85 % 1016,3 hPa 0,0 l/m 0,1 km/h N 6,2 C 8,6 C 1,6 km/h
11.10.2010 12:00 11,1 C 77 % 1016,0 hPa 0,0 l/m 0,3 km/h N 7,1 C 11,1 C 3,2 km/h
11.10.2010 13:00 13,0 C 69 % 1015,4 hPa 0,0 l/m 0,4 km/h N 7,4 C 13,0 C 3,6 km/h
11.10.2010 14:00 14,0 C 64 % 1015,0 hPa 0,0 l/m 0,6 km/h SO 7,3 C 14,0 C 3,2 km/h
11.10.2010 15:00 14,6 C 61 % 1014,5 hPa 0,0 l/m 1,5 km/h O-SO 7,1 C 14,6 C 4,8 km/h
11.10.2010 16:00 14,8 C 59 % 1014,3 hPa 0,0 l/m 0,8 km/h O-SO 6,9 C 14,8 C 3,6 km/h
11.10.2010 17:00 14,3 C 62 % 1014,1 hPa 0,0 l/m 0,2 km/h N 7,1 C 14,3 C 2,0 km/h
11.10.2010 18:00 12,9 C 68 % 1014,4 hPa 0,0 l/m 0,0 km/h N 7,1 C 12,9 C 0,0 km/h
11.10.2010 19:00 10,1 C 75 % 1014,8 hPa 0,0 l/m 0,0 km/h N 5,7 C 10,1 C 0,4 km/h
11.10.2010 20:00 8,2 C 80 % 1015,0 hPa 0,0 l/m 0,0 km/h N 4,9 C 8,2 C 0,0 km/h
11.10.2010 21:00 6,7 C 81 % 1015,4 hPa 0,0 l/m 0,0 km/h N 3,6 C 6,7 C 0,0 km/h
11.10.2010 22:00 5,8 C 83 % 1015,5 hPa 0,0 l/m 0,0 km/h N 3,0 C 5,8 C 0,0 km/h
11.10.2010 23:00 5,1 C 84 % 1015,5 hPa 0,0 l/m 0,0 km/h N 2,6 C 5,1 C 0,0 km/h
12.10.2010 00:00 4,6 C 84 % 1015,6 hPa 0,0 l/m 0,0 km/h N 2,1 C 4,6 C 0,0 km/h
12.10.2010 01:00 4,3 C 85 % 1015,5 hPa 0,0 l/m 0,0 km/h N 1,9 C 4,3 C 0,0 km/h
12.10.2010 02:00 3,5 C 85 % 1015,4 hPa 0,0 l/m 0,0 km/h N 1,2 C 3,5 C 0,0 km/h
12.10.2010 03:00 3,0 C 85 % 1015,4 hPa 0,0 l/m 0,0 km/h N 0,7 C 3,0 C 0,0 km/h
12.10.2010 04:00 2,5 C 85 % 1015,5 hPa 0,0 l/m 0,0 km/h N 0,3 C 2,5 C 0,0 km/h
12.10.2010 05:00 2,2 C 85 % 1015,8 hPa 0,0 l/m 0,0 km/h N -0,0 C 2,2 C 0,0 km/h
12.10.2010 06:00 1,9 C 85 % 1016,2 hPa 0,0 l/m 0,0 km/h N -0,3 C 1,9 C 0,0 km/h
12.10.2010 07:00 3,0 C 85 % 1016,7 hPa 0,0 l/m 0,0 km/h N 0,7 C 3,0 C 0,0 km/h
12.10.2010 08:00 4,8 C 85 % 1017,1 hPa 0,0 l/m 0,0 km/h N 2,5 C 4,8 C 0,8 km/h
12.10.2010 09:00 5,9 C 85 % 1017,2 hPa 0,0 l/m 0,0 km/h N 3,6 C 5,9 C 0,4 km/h
12.10.2010 10:00 6,8 C 85 % 1017,1 hPa 0,0 l/m 0,1 km/h N 4,4 C 6,8 C 0,8 km/h
12.10.2010 11:00 7,6 C 85 % 1017,0 hPa 0,0 l/m 0,3 km/h N 5,1 C 7,6 C 3,6 km/h
12.10.2010 12:00 9,6 C 85 % 1016,7 hPa 0,0 l/m 0,3 km/h N 7,2 C 9,6 C 2,8 km/h
12.10.2010 13:00 12,5 C 75 % 1015,7 hPa 0,0 l/m 0,8 km/h O-NO 8,1 C 12,5 C 4,8 km/h
12.10.2010 14:00 14,2 C 64 % 1014,9 hPa 0,0 l/m 1,4 km/h O 7,4 C 14,2 C 6,8 km/h
12.10.2010 15:00 14,9 C 62 % 1014,3 hPa 0,0 l/m 1,3 km/h O 7,7 C 14,9 C 8,4 km/h
12.10.2010 16:00 14,7 C 64 % 1014,1 hPa 0,0 l/m 0,8 km/h N 7,9 C 14,7 C 4,0 km/h
12.10.2010 17:00 13,9 C 67 % 1013,8 hPa 0,0 l/m 0,4 km/h N 7,7 C 13,9 C 2,4 km/h
12.10.2010 18:00 12,8 C 70 % 1014,0 hPa 0,0 l/m 0,0 km/h N 7,3 C 12,8 C 0,0 km/h
12.10.2010 19:00 10,8 C 73 % 1014,3 hPa 0,0 l/m 0,0 km/h N 6,2 C 10,8 C 0,0 km/h
12.10.2010 20:00 8,4 C 78 % 1014,6 hPa 0,0 l/m 0,0 km/h N 4,9 C 8,4 C 0,0 km/h
12.10.2010 21:00 6,7 C 81 % 1014,8 hPa 0,0 l/m 0,0 km/h N 3,6 C 6,7 C 0,0 km/h
12.10.2010 22:00 5,9 C 83 % 1014,9 hPa 0,0 l/m 0,0 km/h N 3,2 C 5,9 C 0,0 km/h
12.10.2010 23:00 5,1 C 84 % 1014,6 hPa 0,0 l/m 0,0 km/h N 2,7 C 5,1 C 0,0 km/h
13.10.2010 00:00 4,3 C 84 % 1014,5 hPa 0,0 l/m 0,0 km/h N 1,9 C 4,3 C 0,0 km/h
13.10.2010 01:00 3,8 C 85 % 1014,2 hPa 0,0 l/m 0,0 km/h N 1,4 C 3,8 C 0,0 km/h
13.10.2010 02:00 3,2 C 85 % 1014,4 hPa 0,0 l/m 0,0 km/h N 0,9 C 3,2 C 0,0 km/h
13.10.2010 03:00 3,0 C 85 % 1014,2 hPa 0,0 l/m 0,0 km/h N 0,7 C 3,0 C 0,0 km/h
13.10.2010 04:00 2,7 C 85 % 1014,4 hPa 0,0 l/m 0,0 km/h N 0,4 C 2,7 C 0,0 km/h
13.10.2010 05:00 2,6 C 85 % 1014,5 hPa 0,0 l/m 0,0 km/h N 0,3 C 2,6 C 0,0 km/h
13.10.2010 06:00 2,5 C 85 % 1015,0 hPa 0,0 l/m 0,0 km/h N 0,2 C 2,5 C 0,0 km/h
13.10.2010 07:00 3,2 C 85 % 1015,6 hPa 0,0 l/m 0,0 km/h N 0,9 C 3,2 C 0,0 km/h
13.10.2010 08:00 4,6 C 85 % 1016,3 hPa 0,0 l/m 0,1 km/h N 2,3 C 4,6 C 1,2 km/h
13.10.2010 09:00 5,2 C 85 % 1016,6 hPa 0,0 l/m 0,2 km/h N 2,9 C 5,2 C 2,0 km/h
13.10.2010 10:00 5,9 C 85 % 1016,7 hPa 0,0 l/m 0,1 km/h N 3,6 C 5,9 C 1,6 km/h
13.10.2010 11:00 6,9 C 85 % 1016,8 hPa 0,0 l/m 0,1 km/h N 4,5 C 6,9 C 1,6 km/h
13.10.2010 12:00 8,1 C 84 % 1016,5 hPa 0,0 l/m 0,3 km/h N 5,5 C 8,1 C 2,0 km/h
13.10.2010 13:00 9,6 C 80 % 1015,9 hPa 0,0 l/m 0,2 km/h N 6,3 C 9,6 C 2,0 km/h
13.10.2010 14:00 10,8 C 77 % 1015,2 hPa 0,0 l/m 0,3 km/h N 7,0 C 10,8 C 2,0 km/h
13.10.2010 15:00 11,8 C 75 % 1014,7 hPa 0,0 l/m 0,2 km/h N 7,4 C 11,8 C 2,0 km/h
13.10.2010 16:00 12,1 C 74 % 1014,3 hPa 0,0 l/m 0,2 km/h N 7,5 C 12,1 C 1,6 km/h
13.10.2010 17:00 11,6 C 76 % 1014,3 hPa 0,0 l/m 0,0 km/h N 7,6 C 11,6 C 0,4 km/h
13.10.2010 18:00 10,5 C 78 % 1014,6 hPa 0,0 l/m 0,0 km/h N 6,8 C 10,5 C 0,4 km/h
13.10.2010 19:00 9,3 C 81 % 1015,1 hPa 0,0 l/m 0,0 km/h N 6,2 C 9,3 C 1,2 km/h
13.10.2010 20:00 9,0 C 82 % 1015,3 hPa 0,0 l/m 0,0 km/h N 6,1 C 9,0 C 0,0 km/h
13.10.2010 21:00 7,8 C 82 % 1015,6 hPa 0,0 l/m 0,0 km/h N 4,9 C 7,8 C 0,0 km/h
13.10.2010 22:00 6,4 C 83 % 1015,6 hPa 0,0 l/m 0,0 km/h N 3,7 C 6,4 C 0,4 km/h
13.10.2010 23:00 5,2 C 84 % 1015,1 hPa 0,0 l/m 0,0 km/h N 2,7 C 5,2 C 0,0 km/h
14.10.2010 00:00 4,3 C 84 % 1014,7 hPa 0,0 l/m 0,0 km/h N 1,9 C 4,3 C 0,0 km/h
14.10.2010 01:00 3,5 C 84 % 1014,5 hPa 0,0 l/m 0,0 km/h N 1,1 C 3,5 C 0,0 km/h
14.10.2010 02:00 2,8 C 85 % 1014,1 hPa 0,0 l/m 0,0 km/h N 0,4 C 2,8 C 0,0 km/h
14.10.2010 03:00 2,5 C 85 % 1013,7 hPa 0,0 l/m 0,0 km/h N 0,2 C 2,5 C 0,0 km/h
14.10.2010 04:00 2,0 C 85 % 1013,6 hPa 0,0 l/m 0,0 km/h N -0,3 C 2,0 C 0,0 km/h
14.10.2010 05:00 1,7 C 85 % 1013,5 hPa 0,0 l/m 0,0 km/h N -0,5 C 1,7 C 0,0 km/h
14.10.2010 06:00 1,3 C 85 % 1013,5 hPa 0,0 l/m 0,0 km/h N -0,9 C 1,3 C 0,0 km/h
14.10.2010 07:00 1,3 C 86 % 1013,6 hPa 0,0 l/m 0,0 km/h N -0,9 C 1,3 C 0,0 km/h
14.10.2010 08:00 1,5 C 85 % 1014,0 hPa 0,0 l/m 0,0 km/h N -0,7 C 1,5 C 0,4 km/h
14.10.2010 09:00 3,6 C 85 % 1014,1 hPa 0,0 l/m 1,3 km/h N-NW 1,3 C 3,6 C 4,0 km/h
14.10.2010 10:00 5,5 C 85 % 1014,3 hPa 0,0 l/m 1,2 km/h N-NW 3,2 C 5,5 C 4,8 km/h
14.10.2010 11:00 7,1 C 85 % 1014,0 hPa 0,0 l/m 3,0 km/h NW 4,8 C 7,1 C 8,1 km/h
14.10.2010 12:00 9,4 C 81 % 1013,7 hPa 0,0 l/m 4,8 km/h N-NW 6,2 C 9,4 C 10,9 km/h
14.10.2010 13:00 11,0 C 71 % 1013,2 hPa 0,0 l/m 5,0 km/h N-NW 5,9 C 11,0 C 14,5 km/h
14.10.2010 14:00 11,8 C 67 % 1012,7 hPa 0,0 l/m 5,8 km/h NW 5,9 C 11,6 C 17,3 km/h
14.10.2010 15:00 12,3 C 63 % 1012,5 hPa 0,0 l/m 4,3 km/h NW 5,6 C 12,3 C 14,1 km/h
14.10.2010 16:00 11,7 C 65 % 1012,5 hPa 0,0 l/m 5,0 km/h SW 5,3 C 11,7 C 17,3 km/h
14.10.2010 17:00 10,8 C 69 % 1012,5 hPa 0,0 l/m 2,5 km/h O-SO 5,2 C 10,8 C 15,7 km/h
14.10.2010 18:00 9,8 C 71 % 1012,6 hPa 0,0 l/m 0,9 km/h N 4,8 C 9,8 C 6,8 km/h
14.10.2010 19:00 9,1 C 74 % 1012,8 hPa 0,0 l/m 1,0 km/h S-SW 4,6 C 9,1 C 9,7 km/h
14.10.2010 20:00 8,9 C 74 % 1012,9 hPa 0,0 l/m 1,8 km/h N-NO 4,4 C 8,9 C 11,3 km/h
14.10.2010 21:00 9,1 C 71 % 1012,9 hPa 0,0 l/m 2,6 km/h NW 4,2 C 9,1 C 12,9 km/h
14.10.2010 22:00 8,9 C 71 % 1013,2 hPa 0,0 l/m 1,5 km/h W-SW 4,0 C 8,9 C 10,9 km/h
14.10.2010 23:00 8,9 C 72 % 1013,0 hPa 0,0 l/m 1,8 km/h SW 4,1 C 8,9 C 12,5 km/h
15.10.2010 00:00 8,9 C 72 % 1012,7 hPa 0,0 l/m 1,3 km/h W-NW 4,1 C 8,9 C 8,8 km/h
15.10.2010 01:00 8,7 C 75 % 1013,0 hPa 0,0 l/m 4,1 km/h N 4,4 C 8,7 C 9,7 km/h
15.10.2010 02:00 8,3 C 78 % 1013,0 hPa 0,0 l/m 1,4 km/h NW 4,6 C 8,3 C 6,4 km/h
15.10.2010 03:00 8,2 C 78 % 1012,7 hPa 0,0 l/m 0,4 km/h N 4,5 C 8,2 C 4,4 km/h
15.10.2010 04:00 7,6 C 78 % 1012,5 hPa 0,0 l/m 2,6 km/h NW 4,1 C 7,6 C 8,4 km/h
15.10.2010 05:00 7,5 C 80 % 1012,7 hPa 0,0 l/m 0,5 km/h N 4,3 C 7,5 C 3,2 km/h
15.10.2010 06:00 7,0 C 80 % 1012,7 hPa 0,0 l/m 0,0 km/h N 3,7 C 7,0 C 0,8 km/h
15.10.2010 07:00 6,3 C 81 % 1012,7 hPa 0,0 l/m 0,4 km/h NW 3,4 C 6,3 C 2,0 km/h
15.10.2010 08:00 6,6 C 83 % 1013,0 hPa 0,0 l/m 0,7 km/h N 3,8 C 6,6 C 3,2 km/h
15.10.2010 09:00 7,7 C 82 % 1013,4 hPa 0,0 l/m 0,8 km/h NW 4,8 C 7,7 C 4,0 km/h
15.10.2010 10:00 8,7 C 78 % 1013,2 hPa 0,0 l/m 1,6 km/h NW 5,0 C 8,7 C 7,2 km/h
15.10.2010 11:00 9,6 C 73 % 1012,9 hPa 0,0 l/m 2,8 km/h NW 5,0 C 9,6 C 7,6 km/h
15.10.2010 12:00 10,2 C 67 % 1012,8 hPa 0,0 l/m 3,0 km/h NW 4,5 C 10,2 C 3,7 km/h
15.10.2010 13:00 10,6 C 66 % 1012,2 hPa 0,0 l/m 3,1 km/h N-NW 4,6 C 10,6 C 9,3 km/h
15.10.2010 14:00 10,7 C 66 % 1011,6 hPa 0,0 l/m 1,5 km/h SW 4,5 C 10,7 C 7,7 km/h
15.10.2010 15:00 10,4 C 67 % 1011,4 hPa 0,0 l/m 1,5 km/h N-NW 4,6 C 10,4 C 6,0 km/h
15.10.2010 16:00 10,4 C 67 % 1011,1 hPa 0,0 l/m 1,1 km/h S 4,6 C 10,4 C 6,4 km/h
15.10.2010 17:00 10,5 C 67 % 1010,8 hPa 0,0 l/m 0,7 km/h N 4,7 C 10,5 C 4,4 km/h
15.10.2010 18:00 10,1 C 70 % 1010,9 hPa 0,0 l/m 0,1 km/h N 4,9 C 10,1 C 1,6 km/h
15.10.2010 19:00 9,6 C 73 % 1011,2 hPa 0,0 l/m 0,0 km/h N 5,0 C 9,6 C 1,2 km/h
15.10.2010 20:00 9,3 C 76 % 1011,1 hPa 0,0 l/m 0,0 km/h N 5,2 C 9,3 C 0,8 km/h
15.10.2010 21:00 8,9 C 77 % 1011,0 hPa 0,0 l/m 0,1 km/h N 5,1 C 8,9 C 1,6 km/h
15.10.2010 22:00 8,8 C 78 % 1011,0 hPa 0,0 l/m 0,0 km/h N 5,2 C 8,8 C 0,4 km/h
15.10.2010 23:00 8,5 C 80 % 1010,9 hPa 0,0 l/m 0,0 km/h N 5,2 C 8,5 C 0,0 km/h
16.10.2010 00:00 8,4 C 81 % 1010,6 hPa 0,0 l/m 0,0 km/h N 5,2 C 8,4 C 0,4 km/h
16.10.2010 01:00 8,3 C 81 % 1010,2 hPa 0,0 l/m 0,0 km/h N 5,2 C 8,3 C 0,0 km/h
16.10.2010 02:00 8,2 C 81 % 1010,0 hPa 0,0 l/m 0,0 km/h N 5,2 C 8,2 C 0,4 km/h
16.10.2010 03:00 8,2 C 82 % 1009,5 hPa 0,0 l/m 0,0 km/h N 5,3 C 8,2 C 0,8 km/h
16.10.2010 04:00 8,1 C 83 % 1009,4 hPa 0,0 l/m 0,0 km/h N 5,3 C 8,1 C 0,4 km/h
16.10.2010 05:00 7,9 C 83 % 1009,4 hPa 0,0 l/m 0,0 km/h N 5,2 C 7,9 C 0,0 km/h
16.10.2010 06:00 7,8 C 83 % 1009,2 hPa 0,0 l/m 0,0 km/h N 5,1 C 7,8 C 0,0 km/h
16.10.2010 07:00 7,7 C 84 % 1009,2 hPa 0,0 l/m 0,0 km/h N 5,1 C 7,7 C 0,0 km/h
16.10.2010 08:00 7,6 C 84 % 1009,4 hPa 0,0 l/m 0,0 km/h N 5,1 C 7,6 C 0,0 km/h
16.10.2010 09:00 7,9 C 84 % 1009,7 hPa 0,0 l/m 0,0 km/h N 5,4 C 7,9 C 0,0 km/h
16.10.2010 10:00 8,3 C 85 % 1010,0 hPa 0,0 l/m 0,1 km/h N 5,8 C 8,3 C 1,6 km/h
16.10.2010 11:00 8,7 C 84 % 1010,0 hPa 0,0 l/m 0,1 km/h N 6,1 C 8,7 C 2,8 km/h
16.10.2010 12:00 9,4 C 81 % 1010,0 hPa 0,0 l/m 0,1 km/h N 6,4 C 9,4 C 1,2 km/h
16.10.2010 13:00 10,6 C 76 % 1009,7 hPa 0,0 l/m 0,0 km/h N 6,4 C 10,6 C 1,6 km/h
16.10.2010 14:00 11,0 C 69 % 1009,4 hPa 0,0 l/m 0,3 km/h N 5,6 C 11,0 C 4,0 km/h
16.10.2010 15:00 10,7 C 70 % 1009,5 hPa 0,0 l/m 0,1 km/h N 5,5 C 10,7 C 2,0 km/h
16.10.2010 16:00 10,4 C 73 % 1009,7 hPa 0,0 l/m 0,0 km/h N 5,7 C 10,4 C 1,2 km/h
16.10.2010 17:00 10,3 C 74 % 1009,8 hPa 0,0 l/m 0,0 km/h N 5,7 C 10,3 C 1,2 km/h
16.10.2010 18:00 9,7 C 76 % 1010,4 hPa 0,0 l/m 0,0 km/h N 5,6 C 9,7 C 0,0 km/h
16.10.2010 19:00 9,0 C 79 % 1011,2 hPa 0,0 l/m 0,0 km/h N 5,5 C 9,0 C 0,4 km/h
16.10.2010 20:00 8,3 C 81 % 1011,6 hPa 0,0 l/m 0,0 km/h N 5,2 C 8,3 C 0,0 km/h
16.10.2010 21:00 7,3 C 83 % 1011,8 hPa 0,0 l/m 0,0 km/h N 4,5 C 7,3 C 0,0 km/h
16.10.2010 22:00 6,1 C 83 % 1012,4 hPa 0,0 l/m 0,0 km/h N 3,5 C 6,1 C 0,0 km/h
16.10.2010 23:00 5,2 C 84 % 1012,8 hPa 0,0 l/m 0,0 km/h N 2,7 C 5,2 C 0,0 km/h
17.10.2010 00:00 4,8 C 85 % 1012,9 hPa 0,0 l/m 0,0 km/h N 2,4 C 4,8 C 0,0 km/h
17.10.2010 01:00 5,0 C 85 % 1012,9 hPa 0,0 l/m 0,0 km/h N 2,6 C 5,0 C 0,8 km/h
17.10.2010 02:00 5,1 C 85 % 1013,1 hPa 0,0 l/m 0,0 km/h N 2,8 C 5,1 C 0,8 km/h
17.10.2010 03:00 5,2 C 85 % 1013,3 hPa 0,0 l/m 0,0 km/h N 2,9 C 5,2 C 1,2 km/h
17.10.2010 04:00 4,9 C 85 % 1013,3 hPa 0,0 l/m 0,0 km/h N 2,6 C 4,9 C 0,0 km/h
17.10.2010 05:00 4,8 C 85 % 1013,8 hPa 0,0 l/m 0,0 km/h N 2,5 C 4,8 C 0,0 km/h
17.10.2010 06:00 5,6 C 85 % 1013,9 hPa 0,0 l/m 0,2 km/h N 3,3 C 5,6 C 2,0 km/h
17.10.2010 07:00 6,3 C 85 % 1014,3 hPa 0,0 l/m 0,1 km/h N 4,0 C 6,3 C 1,6 km/h
17.10.2010 08:00 6,7 C 85 % 1014,8 hPa 0,0 l/m 0,7 km/h N-NW 4,3 C 6,7 C 3,6 km/h
17.10.2010 09:00 6,8 C 85 % 1015,1 hPa 0,0 l/m 1,3 km/h N-NW 4,5 C 6,8 C 4,8 km/h
17.10.2010 10:00 6,9 C 85 % 1015,3 hPa 0,0 l/m 1,7 km/h N-NW 4,5 C 6,9 C 5,6 km/h
17.10.2010 11:00 7,1 C 84 % 1015,7 hPa 0,0 l/m 0,9 km/h N-NW 4,6 C 7,1 C 4,4 km/h
17.10.2010 12:00 7,2 C 84 % 1015,8 hPa 0,5 l/m 2,5 km/h NW 4,6 C 7,2 C 7,6 km/h
17.10.2010 13:00 7,1 C 85 % 1015,9 hPa 1,3 l/m 1,6 km/h N-NW 4,6 C 7,1 C 5,6 km/h
17.10.2010 14:00 7,0 C 85 % 1015,7 hPa 0,8 l/m 1,5 km/h N-NW 4,6 C 7,0 C 6,8 km/h
17.10.2010 15:00 6,9 C 85 % 1015,7 hPa 1,3 l/m 1,3 km/h N-NW 4,6 C 6,9 C 4,8 km/h
17.10.2010 16:00 7,0 C 85 % 1015,8 hPa 1,0 l/m 0,6 km/h N 4,7 C 7,0 C 2,4 km/h
17.10.2010 17:00 6,9 C 85 % 1016,1 hPa 1,6 l/m 0,1 km/h N 4,6 C 6,9 C 1,2 km/h
17.10.2010 18:00 6,9 C 85 % 1016,4 hPa 1,8 l/m 0,2 km/h N 4,6 C 6,9 C 2,0 km/h
17.10.2010 19:00 6,9 C 85 % 1016,8 hPa 1,0 l/m 0,2 km/h N 4,6 C 6,9 C 2,4 km/h
17.10.2010 20:00 6,8 C 85 % 1016,9 hPa 1,3 l/m 1,0 km/h N-NW 4,4 C 6,8 C 5,6 km/h
17.10.2010 21:00 6,4 C 85 % 1017,3 hPa 1,3 l/m 0,8 km/h N-NW 4,1 C 6,4 C 4,4 km/h
17.10.2010 22:00 6,3 C 85 % 1017,5 hPa 1,3 l/m 0,4 km/h N 4,0 C 6,3 C 2,0 km/h
17.10.2010 23:00 6,3 C 85 % 1017,5 hPa 1,0 l/m 0,6 km/h N 3,9 C 6,3 C 2,4 km/h
Min-Datum _ 14.10.10 11.10.10 16.10.10 - 11.10.10 - 14.10.10 14.10.10 11.10.10
_ Min-Zeit 07:30 16:30 07:00 - 00:00 - 06:15 07:30 00:00
Minimum _ 1,2 C 58 % 1009,1 hPa - 0,0 km/h - -0,9 C 1,2 C 0,0 km/h
Max-Datum _ 12.10.10 14.10.10 17.10.10 17.10.10 14.10.10 - 12.10.10 12.10.10 14.10.10
_ Max-Zeit 15:45 07:30 22:00 18:15 14:00 - 13:15 15:45 15:17
Maximum _ 15,2 C 86 % 1017,5 hPa 1,8 l/m 8,1 km/h
NW
- 8,4 C 15,2 C 20,9 km/h
S
Durchschnitt _ 7,4 C 80 % 1013,9 hPa #14,3 l/m 0,6 km/h N-NW 4,1 C 7,4 C 2,7 km/h